createdAt,value
2018-05-03T00:02:38.028Z,14.80
2018-05-03T00:05:06.177Z,14.80
2018-05-03T00:07:34.946Z,14.80
2018-05-03T00:10:04.337Z,14.80
2018-05-03T00:12:40.777Z,14.80
2018-05-03T00:15:12.796Z,14.90
2018-05-03T00:17:42.574Z,14.90
2018-05-03T00:20:15.142Z,14.90
2018-05-03T00:22:45.668Z,15.00
2018-05-03T00:25:16.286Z,14.90
2018-05-03T00:27:44.067Z,14.90
2018-05-03T00:30:12.865Z,14.90
2018-05-03T00:32:53.470Z,14.90
2018-05-03T00:35:21.317Z,14.90
2018-05-03T00:37:49.874Z,14.80
2018-05-03T00:40:17.669Z,14.80
2018-05-03T00:42:49.335Z,14.80
2018-05-03T00:47:52.625Z,14.70
2018-05-03T00:50:21.325Z,14.70
2018-05-03T00:52:49.015Z,14.70
2018-05-03T00:55:21.645Z,14.60
2018-05-03T00:57:49.431Z,14.60
2018-05-03T01:00:17.182Z,14.60
2018-05-03T01:02:48.938Z,14.60
2018-05-03T01:05:16.688Z,14.60
2018-05-03T01:07:44.392Z,14.50
2018-05-03T01:10:12.225Z,14.50
2018-05-03T01:12:40.014Z,14.40
2018-05-03T01:15:07.764Z,14.40
2018-05-03T01:17:38.255Z,14.40
2018-05-03T01:20:05.977Z,14.30
2018-05-03T01:22:33.683Z,14.30
2018-05-03T01:25:02.236Z,14.30
2018-05-03T01:27:29.976Z,14.20
2018-05-03T01:29:57.641Z,14.30
2018-05-03T01:32:25.451Z,14.20
2018-05-03T01:35:04.845Z,14.10
2018-05-03T01:37:33.501Z,13.90
2018-05-03T01:40:01.236Z,13.80
2018-05-03T01:42:28.935Z,13.60
2018-05-03T01:44:56.697Z,13.60
2018-05-03T01:47:24.416Z,13.50
2018-05-03T01:49:52.156Z,13.50
2018-05-03T01:52:19.929Z,13.50
2018-05-03T01:54:47.603Z,13.50
2018-05-03T01:57:15.312Z,13.50
2018-05-03T01:59:43.058Z,13.50
2018-05-03T02:02:10.730Z,13.60
2018-05-03T02:04:38.416Z,13.60
2018-05-03T02:07:06.236Z,13.50
2018-05-03T02:09:33.909Z,13.50
2018-05-03T02:12:01.717Z,13.50
2018-05-03T02:14:29.435Z,13.50
2018-05-03T02:16:57.165Z,13.50
2018-05-03T02:19:24.919Z,13.50
2018-05-03T02:21:52.751Z,13.60
2018-05-03T02:24:20.387Z,13.60
2018-05-03T02:26:52.736Z,13.60
2018-05-03T02:29:21.247Z,13.60
2018-05-03T02:31:48.976Z,13.60
2018-05-03T02:34:16.698Z,13.60
2018-05-03T02:36:45.247Z,13.60
2018-05-03T02:39:13.746Z,13.60
2018-05-03T02:41:41.418Z,13.60
2018-05-03T02:44:09.114Z,13.60
2018-05-03T02:46:36.905Z,13.60
2018-05-03T02:49:04.629Z,13.60
2018-05-03T02:51:32.457Z,13.50
2018-05-03T02:54:00.171Z,13.50
2018-05-03T02:56:27.885Z,13.50
2018-05-03T02:59:07.260Z,13.40
2018-05-03T03:01:52.479Z,13.40
2018-05-03T03:04:37.766Z,13.40
2018-05-03T03:10:42.519Z,13.30
2018-05-03T03:13:31.629Z,13.30
2018-05-03T03:16:16.849Z,13.30
2018-05-03T03:19:02.078Z,13.20
2018-05-03T03:21:47.316Z,13.10
2018-05-03T03:24:32.636Z,13.10
2018-05-03T03:30:35.255Z,13.00
2018-05-03T03:33:14.780Z,12.90
2018-05-03T03:36:03.022Z,12.90
2018-05-03T03:38:42.618Z,12.90
2018-05-03T03:41:24.388Z,12.90
2018-05-03T03:44:05.760Z,12.80
2018-05-03T03:46:40.559Z,12.90
2018-05-03T03:49:08.297Z,12.90
2018-05-03T03:51:36.001Z,12.90
2018-05-03T03:54:04.474Z,13.00
2018-05-03T03:56:32.236Z,13.00
2018-05-03T03:58:59.923Z,13.10
2018-05-03T04:01:41.007Z,13.10
2018-05-03T04:04:08.668Z,13.10
2018-05-03T04:06:36.458Z,13.10
2018-05-03T04:09:04.286Z,13.20
2018-05-03T04:11:32.019Z,13.30
2018-05-03T04:13:59.807Z,13.50
2018-05-03T04:16:27.499Z,13.90
2018-05-03T04:19:07.098Z,14.30
2018-05-03T04:21:46.623Z,14.70
2018-05-03T04:24:26.239Z,15.30
2018-05-03T04:26:53.940Z,15.70
2018-05-03T04:29:21.648Z,15.80
2018-05-03T04:31:50.399Z,15.80
2018-05-03T04:34:18.107Z,16.00
2018-05-03T04:36:45.887Z,16.30
2018-05-03T04:39:13.671Z,16.50
2018-05-03T04:41:41.404Z,16.80
2018-05-03T04:44:09.119Z,17.10
2018-05-03T04:46:36.970Z,17.40
2018-05-03T04:49:04.629Z,17.40
2018-05-03T04:51:32.281Z,17.50
2018-05-03T04:54:00.097Z,18.10
2018-05-03T04:56:27.739Z,18.70
2018-05-03T04:58:55.418Z,19.30
2018-05-03T05:01:23.820Z,19.80
2018-05-03T05:03:51.465Z,20.30
2018-05-03T05:06:19.192Z,20.80
2018-05-03T05:08:46.962Z,21.30
2018-05-03T05:11:14.693Z,21.50
2018-05-03T05:13:42.352Z,21.50
2018-05-03T05:16:10.142Z,21.40
2018-05-03T05:18:37.834Z,21.40
2018-05-03T05:21:05.519Z,21.40
2018-05-03T05:23:33.321Z,20.70
2018-05-03T05:26:00.993Z,20.20
2018-05-03T05:28:29.477Z,20.00
2018-05-03T05:30:57.248Z,20.30
2018-05-03T05:33:24.888Z,20.60
2018-05-03T05:35:52.538Z,20.90
2018-05-03T05:38:21.286Z,21.40
2018-05-03T05:40:48.943Z,21.60
2018-05-03T05:43:16.589Z,21.60
2018-05-03T05:45:47.166Z,21.70
2018-05-03T05:48:14.853Z,21.90
2018-05-03T05:50:50.147Z,21.90
2018-05-03T05:53:17.859Z,21.90
2018-05-03T05:55:47.377Z,22.00
2018-05-03T05:58:15.144Z,22.00
2018-05-03T06:00:42.840Z,21.80
2018-05-03T06:03:10.535Z,21.50
2018-05-03T06:05:38.296Z,21.50
2018-05-03T06:08:18.622Z,21.50
2018-05-03T06:10:46.386Z,21.50
2018-05-03T06:13:14.034Z,21.60
2018-05-03T06:15:41.738Z,21.60
2018-05-03T06:18:09.657Z,21.60
2018-05-03T06:20:37.656Z,21.70
2018-05-03T06:23:05.597Z,21.80
2018-05-03T06:25:33.596Z,21.90
2018-05-03T06:28:01.444Z,22.00
2018-05-03T06:30:29.976Z,22.00
2018-05-03T06:32:58.397Z,21.90
2018-05-03T06:35:26.236Z,21.80
2018-05-03T06:37:54.337Z,21.70
2018-05-03T06:40:22.276Z,21.70
2018-05-03T06:42:50.257Z,21.80
2018-05-03T06:45:18.267Z,21.90
2018-05-03T06:47:46.416Z,21.90
2018-05-03T06:50:14.615Z,22.00
2018-05-03T06:52:42.536Z,22.10
2018-05-03T06:55:10.516Z,22.10
2018-05-03T06:57:38.457Z,22.10
2018-05-03T07:00:06.217Z,22.20
2018-05-03T07:02:34.783Z,22.20
2018-05-03T07:05:02.664Z,22.30
2018-05-03T07:07:31.059Z,22.40
2018-05-03T07:09:59.008Z,22.50
2018-05-03T07:12:27.087Z,22.50
2018-05-03T07:14:55.779Z,22.50
2018-05-03T07:17:24.139Z,22.50
2018-05-03T07:19:52.180Z,22.50
2018-05-03T07:22:20.022Z,22.60
2018-05-03T07:24:48.139Z,22.70
2018-05-03T07:27:16.319Z,22.70
2018-05-03T07:29:44.499Z,22.90
2018-05-03T07:32:12.479Z,23.00
2018-05-03T07:34:40.339Z,23.10
2018-05-03T07:37:08.579Z,23.20
2018-05-03T07:39:36.562Z,23.30
2018-05-03T07:42:04.421Z,23.30
2018-05-03T07:44:32.584Z,23.30
2018-05-03T07:47:00.697Z,23.40
2018-05-03T07:49:28.576Z,23.40
2018-05-03T07:51:56.376Z,23.50
2018-05-03T07:54:25.200Z,23.60
2018-05-03T07:56:53.016Z,23.50
2018-05-03T07:59:21.822Z,23.60
2018-05-03T08:01:49.999Z,23.60
2018-05-03T08:04:17.926Z,23.70
2018-05-03T08:06:45.839Z,23.70
2018-05-03T08:09:14.359Z,23.30
2018-05-03T08:11:42.227Z,23.30
2018-05-03T08:14:10.980Z,23.40
2018-05-03T08:19:11.218Z,23.70
2018-05-03T08:21:39.418Z,23.90
2018-05-03T08:24:07.358Z,24.10
2018-05-03T08:26:35.418Z,24.20
2018-05-03T08:29:03.365Z,24.40
2018-05-03T08:31:31.258Z,24.60
2018-05-03T08:33:59.240Z,24.60
2018-05-03T08:36:27.544Z,24.60
2018-05-03T08:38:55.381Z,24.20
2018-05-03T08:41:23.388Z,24.10
2018-05-03T08:44:00.128Z,24.00
2018-05-03T08:46:35.167Z,24.10
2018-05-03T08:49:11.488Z,24.30
2018-05-03T08:51:45.412Z,24.50
2018-05-03T08:54:19.967Z,24.50
2018-05-03T08:56:53.768Z,24.20
2018-05-03T08:59:30.061Z,24.00
2018-05-03T09:02:05.888Z,23.80
2018-05-03T09:04:41.728Z,23.40
2018-05-03T09:07:17.581Z,23.30
2018-05-03T09:09:52.448Z,23.20
2018-05-03T09:12:29.888Z,23.30
2018-05-03T09:15:03.813Z,23.40
2018-05-03T09:17:40.608Z,23.20
2018-05-03T09:20:15.336Z,23.40
2018-05-03T09:22:49.232Z,23.40
2018-05-03T09:25:24.927Z,23.40
2018-05-03T09:27:59.487Z,23.50
2018-05-03T09:30:34.851Z,23.70
2018-05-03T09:33:08.374Z,24.00
2018-05-03T09:35:36.477Z,24.10
2018-05-03T09:38:04.479Z,24.30
2018-05-03T09:40:32.682Z,24.40
2018-05-03T09:43:01.241Z,24.40
2018-05-03T09:45:29.182Z,24.50
2018-05-03T09:47:57.444Z,24.60
2018-05-03T09:50:25.543Z,24.80
2018-05-03T09:52:53.552Z,25.00
2018-05-03T09:55:22.723Z,24.50
2018-05-03T09:57:51.689Z,24.30
2018-05-03T10:00:19.433Z,24.50
2018-05-03T10:02:47.216Z,24.90
2018-05-03T10:05:15.416Z,25.10
2018-05-03T10:07:43.875Z,25.30
2018-05-03T10:10:11.736Z,25.50
2018-05-03T10:12:40.536Z,25.60
2018-05-03T10:15:08.956Z,25.70
2018-05-03T10:17:36.796Z,25.90
2018-05-03T10:20:04.576Z,25.80
2018-05-03T10:22:32.623Z,25.60
2018-05-03T10:25:00.476Z,25.50
2018-05-03T10:27:28.496Z,25.20
2018-05-03T10:29:56.381Z,25.00
2018-05-03T10:32:24.255Z,24.70
2018-05-03T10:34:53.015Z,24.60
2018-05-03T10:37:20.899Z,24.70
2018-05-03T10:39:48.797Z,25.00
2018-05-03T10:42:16.756Z,25.20
2018-05-03T10:44:45.017Z,25.30
2018-05-03T10:47:12.937Z,25.30
2018-05-03T10:49:40.997Z,25.20
2018-05-03T10:52:08.879Z,24.90
2018-05-03T10:54:37.324Z,24.80
2018-05-03T10:57:05.477Z,24.50
2018-05-03T10:59:33.456Z,24.20
2018-05-03T11:02:01.363Z,24.10
2018-05-03T11:04:29.315Z,24.00
2018-05-03T11:06:58.495Z,24.20
2018-05-03T11:09:26.414Z,24.40
2018-05-03T11:11:54.477Z,24.60
2018-05-03T11:14:22.434Z,24.70
2018-05-03T11:16:50.856Z,24.50
2018-05-03T11:19:19.001Z,24.20
2018-05-03T11:21:47.737Z,24.30
2018-05-03T11:24:16.075Z,24.30
2018-05-03T11:26:44.794Z,24.10
2018-05-03T11:29:12.615Z,24.00
2018-05-03T11:31:40.515Z,23.90
2018-05-03T11:34:08.515Z,24.10
2018-05-03T11:36:36.539Z,24.30
2018-05-03T11:39:05.054Z,24.50
2018-05-03T11:41:34.221Z,24.30
2018-05-03T11:44:02.261Z,24.20
2018-05-03T11:46:30.121Z,24.00
2018-05-03T11:48:58.483Z,23.70
2018-05-03T11:51:26.422Z,23.50
2018-05-03T11:53:54.263Z,23.50
2018-05-03T11:56:23.061Z,23.70
2018-05-03T11:58:50.961Z,23.60
2018-05-03T12:01:18.801Z,23.60
2018-05-03T12:03:47.125Z,23.70
2018-05-03T12:06:14.930Z,23.90
2018-05-03T12:08:42.761Z,24.00
2018-05-03T12:11:10.720Z,23.90
2018-05-03T12:13:38.571Z,23.80
2018-05-03T12:16:06.417Z,23.70
2018-05-03T12:18:34.565Z,23.70
2018-05-03T12:21:03.556Z,23.90
2018-05-03T12:23:31.684Z,23.90
2018-05-03T12:26:00.017Z,24.00
2018-05-03T12:28:29.836Z,23.90
2018-05-03T12:30:58.676Z,23.90
2018-05-03T12:33:26.616Z,23.90
2018-05-03T12:35:55.536Z,23.70
2018-05-03T12:38:23.590Z,23.70
2018-05-03T12:40:52.516Z,23.80
2018-05-03T12:43:20.456Z,23.70
2018-05-03T12:45:49.076Z,23.80
2018-05-03T12:48:17.337Z,23.80
2018-05-03T12:50:45.319Z,23.80
2018-05-03T12:53:13.236Z,23.80
2018-05-03T12:55:41.336Z,23.70
2018-05-03T12:58:09.375Z,23.70
2018-05-03T13:00:38.026Z,23.50
2018-05-03T13:03:06.406Z,23.50
2018-05-03T13:05:34.426Z,23.40
2018-05-03T13:08:03.434Z,23.40
2018-05-03T13:10:31.588Z,23.50
2018-05-03T13:12:59.687Z,23.70
2018-05-03T13:15:29.307Z,23.80
2018-05-03T13:17:57.347Z,23.70
2018-05-03T13:20:26.136Z,23.50
2018-05-03T13:22:54.087Z,23.50
2018-05-03T13:25:22.527Z,23.40
2018-05-03T13:27:50.467Z,23.40
2018-05-03T13:30:18.519Z,23.50
2018-05-03T13:32:46.536Z,23.50
2018-05-03T13:35:14.499Z,23.50
2018-05-03T13:37:43.641Z,23.60
2018-05-03T13:40:12.320Z,23.50
2018-05-03T13:42:41.147Z,23.40
2018-05-03T13:45:09.020Z,23.30
2018-05-03T13:47:37.132Z,23.20
2018-05-03T13:50:05.965Z,23.10
2018-05-03T13:52:34.441Z,22.90
2018-05-03T13:55:02.299Z,22.90
2018-05-03T13:57:30.260Z,22.90
2018-05-03T13:59:58.199Z,22.90
2018-05-03T14:02:26.495Z,22.90
2018-05-03T14:04:54.355Z,23.00
2018-05-03T14:07:22.624Z,23.00
2018-05-03T14:09:50.556Z,23.10
2018-05-03T14:12:18.480Z,23.10
2018-05-03T14:14:46.339Z,23.20
2018-05-03T14:17:14.322Z,23.30
2018-05-03T14:19:42.499Z,23.40
2018-05-03T14:22:10.838Z,23.50
2018-05-03T14:24:40.219Z,23.50
2018-05-03T14:27:08.058Z,23.50
2018-05-03T14:29:36.136Z,23.40
2018-05-03T14:32:04.135Z,23.30
2018-05-03T14:34:32.098Z,23.40
2018-05-03T14:36:59.934Z,23.40
2018-05-03T14:39:28.195Z,23.40
2018-05-03T14:44:28.195Z,23.30
2018-05-03T14:46:56.175Z,23.30
2018-05-03T14:49:24.394Z,23.30
2018-05-03T14:51:52.276Z,23.30
2018-05-03T14:54:20.336Z,23.40
2018-05-03T14:56:48.255Z,23.40
2018-05-03T14:59:16.236Z,23.60
2018-05-03T15:01:44.275Z,23.70
2018-05-03T15:04:12.375Z,23.60
2018-05-03T15:06:40.447Z,23.60
2018-05-03T15:09:08.815Z,23.70
2018-05-03T15:11:36.815Z,23.50
2018-05-03T15:14:05.375Z,23.30
2018-05-03T15:16:33.466Z,23.10
2018-05-03T15:19:01.596Z,23.20
2018-05-03T15:21:29.634Z,23.30
2018-05-03T15:23:57.674Z,23.30
2018-05-03T15:26:25.535Z,23.20
2018-05-03T15:28:53.374Z,23.30
2018-05-03T15:31:22.176Z,23.20
2018-05-03T15:33:50.371Z,23.10
2018-05-03T15:36:18.318Z,23.00
2018-05-03T15:38:46.296Z,23.00
2018-05-03T15:41:14.556Z,22.80
2018-05-03T15:43:43.758Z,22.90
2018-05-03T15:46:12.694Z,22.80
2018-05-03T15:48:40.703Z,22.80
2018-05-03T15:51:09.015Z,22.80
2018-05-03T15:53:36.894Z,22.80
2018-05-03T15:56:06.854Z,22.70
2018-05-03T15:58:34.934Z,22.70
2018-05-03T16:01:02.935Z,22.70
2018-05-03T16:03:31.095Z,22.70
2018-05-03T16:05:59.035Z,22.60
2018-05-03T16:10:59.020Z,22.60
2018-05-03T16:13:26.877Z,22.50
2018-05-03T16:15:55.637Z,22.50
2018-05-03T16:18:23.537Z,22.50
2018-05-03T16:20:51.383Z,22.50
2018-05-03T16:23:19.362Z,22.40
2018-05-03T16:25:47.297Z,22.50
2018-05-03T16:28:15.437Z,22.50
2018-05-03T16:30:43.441Z,22.50
2018-05-03T16:33:11.577Z,22.50
2018-05-03T16:35:39.494Z,22.50
2018-05-03T16:38:07.574Z,22.50
2018-05-03T16:40:35.497Z,22.40
2018-05-03T16:43:03.337Z,22.40
2018-05-03T16:45:31.397Z,22.40
2018-05-03T16:47:59.817Z,22.40
2018-05-03T16:50:27.697Z,22.40
2018-05-03T16:52:55.979Z,22.40
2018-05-03T16:55:25.688Z,22.30
2018-05-03T16:57:53.616Z,22.30
2018-05-03T17:00:21.410Z,22.30
2018-05-03T17:02:49.515Z,22.20
2018-05-03T17:05:17.395Z,22.20
2018-05-03T17:07:45.417Z,22.20
2018-05-03T17:10:13.757Z,22.20
2018-05-03T17:12:41.817Z,22.20
2018-05-03T17:15:09.917Z,22.10
2018-05-03T17:17:38.478Z,22.10
2018-05-03T17:20:06.338Z,22.10
2018-05-03T17:22:34.457Z,22.00
2018-05-03T17:25:02.295Z,21.90
2018-05-03T17:27:30.257Z,21.90
2018-05-03T17:29:59.196Z,21.90
2018-05-03T17:32:27.118Z,21.80
2018-05-03T17:34:55.199Z,21.80
2018-05-03T17:37:24.699Z,21.70
2018-05-03T17:39:53.002Z,21.70
2018-05-03T17:42:20.766Z,21.70
2018-05-03T17:44:48.759Z,21.60
2018-05-03T17:47:16.759Z,21.60
2018-05-03T17:49:44.592Z,21.50
2018-05-03T17:52:12.459Z,21.50
2018-05-03T17:54:40.459Z,21.40
2018-05-03T17:57:08.420Z,21.40
2018-05-03T17:59:36.500Z,21.30
2018-05-03T18:02:04.418Z,21.20
2018-05-03T18:04:32.232Z,21.10
2018-05-03T18:07:00.020Z,21.00
2018-05-03T18:09:27.820Z,20.80
2018-05-03T18:11:56.441Z,20.70
2018-05-03T18:14:24.380Z,20.50
2018-05-03T18:16:52.240Z,20.50
2018-05-03T18:19:20.104Z,20.30
2018-05-03T18:21:48.180Z,20.20
2018-05-03T18:24:16.121Z,20.10
2018-05-03T18:29:16.940Z,19.90
2018-05-03T18:31:44.778Z,19.90
2018-05-03T18:34:12.692Z,19.80
2018-05-03T18:36:40.640Z,19.70
2018-05-03T18:39:08.510Z,19.50
2018-05-03T18:41:36.417Z,19.50
2018-05-03T18:44:05.934Z,19.30
2018-05-03T18:46:33.946Z,19.30
2018-05-03T18:49:01.996Z,19.30
2018-05-03T18:51:29.919Z,19.30
2018-05-03T18:53:57.838Z,19.10
2018-05-03T18:56:25.777Z,18.80
2018-05-03T18:58:53.789Z,18.60
2018-05-03T19:01:21.727Z,18.40
2018-05-03T19:03:50.065Z,18.10
2018-05-03T19:06:19.058Z,17.80
2018-05-03T19:08:46.934Z,17.80
2018-05-03T19:11:14.907Z,17.80
2018-05-03T19:13:44.020Z,18.00
2018-05-03T19:16:12.896Z,18.20
2018-05-03T19:18:40.526Z,18.30
2018-05-03T19:21:08.478Z,18.50
2018-05-03T19:23:36.418Z,18.50
2018-05-03T19:26:04.285Z,18.60
2018-05-03T19:28:32.539Z,18.60
2018-05-03T19:31:00.321Z,18.70
2018-05-03T19:33:28.262Z,18.70
2018-05-03T19:35:56.262Z,18.70
2018-05-03T19:38:24.420Z,18.70
2018-05-03T19:40:53.020Z,18.70
2018-05-03T19:43:22.671Z,18.70
2018-05-03T19:45:50.616Z,18.70
2018-05-03T19:48:18.566Z,18.70
2018-05-03T19:50:47.281Z,18.70
2018-05-03T19:53:15.076Z,18.70
2018-05-03T19:55:43.001Z,18.70
2018-05-03T19:58:11.141Z,18.70
2018-05-03T20:00:39.027Z,18.70
2018-05-03T20:03:07.111Z,18.70
2018-05-03T20:05:35.057Z,18.80
2018-05-03T20:08:03.598Z,18.90
2018-05-03T20:10:32.085Z,19.10
2018-05-03T20:13:00.758Z,19.10
2018-05-03T20:15:28.499Z,19.10
2018-05-03T20:17:56.144Z,19.20
2018-05-03T20:20:24.009Z,19.30
2018-05-03T20:22:52.131Z,19.30
2018-05-03T20:25:19.886Z,19.30
2018-05-03T20:27:47.759Z,19.30
2018-05-03T20:30:16.052Z,19.30
2018-05-03T20:32:43.846Z,19.30
2018-05-03T20:35:11.723Z,19.30
2018-05-03T20:37:39.472Z,19.30
2018-05-03T20:40:07.192Z,19.30
2018-05-03T20:42:35.002Z,19.30
2018-05-03T20:45:02.674Z,19.30
2018-05-03T20:47:30.398Z,19.30
2018-05-03T20:49:58.186Z,19.30
2018-05-03T20:52:25.888Z,19.40
2018-05-03T20:54:53.623Z,19.50
2018-05-03T20:57:21.472Z,19.50
2018-05-03T20:59:49.231Z,19.60
2018-05-03T21:02:16.937Z,19.70
2018-05-03T21:04:44.784Z,19.70
2018-05-03T21:07:12.547Z,19.70
2018-05-03T21:09:40.234Z,19.70
2018-05-03T21:12:08.025Z,19.80
2018-05-03T21:14:35.934Z,19.80
2018-05-03T21:17:03.897Z,19.80
2018-05-03T21:19:31.678Z,19.80
2018-05-03T21:21:59.975Z,19.80
2018-05-03T21:24:27.795Z,19.80
2018-05-03T21:26:55.775Z,19.80
2018-05-03T21:29:23.575Z,19.80
2018-05-03T21:31:51.394Z,19.80
2018-05-03T21:34:19.356Z,19.90
2018-05-03T21:36:47.275Z,19.90
2018-05-03T21:39:15.040Z,19.90
2018-05-03T21:41:42.889Z,19.90
2018-05-03T21:44:10.655Z,19.90
2018-05-03T21:46:38.377Z,19.90
2018-05-03T21:49:06.258Z,19.90
2018-05-03T21:51:33.956Z,19.80
2018-05-03T21:54:01.755Z,19.80
2018-05-03T21:56:29.655Z,19.80
2018-05-03T21:58:57.415Z,19.70
2018-05-03T22:01:25.180Z,19.70
2018-05-03T22:03:53.777Z,19.70
2018-05-03T22:06:21.739Z,19.80
2018-05-03T22:08:49.545Z,19.80
2018-05-03T22:11:17.409Z,19.70
2018-05-03T22:13:46.035Z,19.70
2018-05-03T22:16:13.762Z,19.70
2018-05-03T22:18:41.602Z,19.80
2018-05-03T22:21:10.171Z,19.70
2018-05-03T22:23:37.929Z,19.70
2018-05-03T22:26:05.843Z,19.70
2018-05-03T22:28:33.592Z,19.70
2018-05-03T22:31:01.304Z,19.70
2018-05-03T22:36:01.143Z,19.70
2018-05-03T22:38:29.762Z,19.70
2018-05-03T22:40:57.545Z,19.60
2018-05-03T22:43:25.304Z,19.70
2018-05-03T22:45:53.071Z,19.70
2018-05-03T22:48:20.872Z,19.70
2018-05-03T22:50:48.622Z,19.70
2018-05-03T22:53:16.386Z,19.70
2018-05-03T22:55:44.131Z,19.70
2018-05-03T23:00:43.903Z,19.70
2018-05-03T23:03:12.383Z,19.60
2018-05-03T23:05:40.162Z,19.60
2018-05-03T23:08:08.024Z,19.60
2018-05-03T23:10:35.783Z,19.60
2018-05-03T23:13:03.622Z,19.60
2018-05-03T23:15:31.522Z,19.50
2018-05-03T23:18:00.123Z,19.50
2018-05-03T23:20:27.923Z,19.50
2018-05-03T23:22:55.756Z,19.50
2018-05-03T23:25:23.562Z,19.40
2018-05-03T23:27:51.354Z,19.50
2018-05-03T23:30:19.185Z,19.50
2018-05-03T23:32:46.957Z,19.50
2018-05-03T23:35:14.797Z,19.50
2018-05-03T23:37:42.639Z,19.50
2018-05-03T23:40:10.357Z,19.50
2018-05-03T23:42:38.884Z,19.40
2018-05-03T23:45:06.677Z,19.40
2018-05-03T23:47:34.521Z,19.40
2018-05-03T23:50:02.563Z,19.40
2018-05-03T23:52:30.397Z,19.30
2018-05-03T23:54:58.237Z,19.30
2018-05-03T23:57:26.079Z,19.30
2018-05-03T23:59:54.177Z,19.20
